Time;durP1;ratioP1;P1;durP2;ratioP2;P2;SDS_P1;SDS_P2;PMS_P1;PMS_P2;Temp;Humidity;BMP_temperature;BMP_pressure;BME280_temperature;BME280_humidity;BME280_pressure;Samples;Min_cycle;Max_cycle;Signal;HPM_P1;HPM_P2
2023/09/13 00:01:07;;;;;;;5.38;1.60;;;;;;;14.34;73.65;100501.41;4980935;28;20054;-55
2023/09/13 00:03:34;;;;;;;3.35;1.88;;;;;;;14.34;73.65;100504.03;4981294;28;20056;-48
2023/09/13 00:06:01;;;;;;;4.97;1.75;;;;;;;14.31;73.61;100503.19;4980470;28;20064;-49
2023/09/13 00:08:28;;;;;;;4.85;1.58;;;;;;;14.27;73.32;100508.44;4985359;28;20050;-47
2023/09/13 00:11:07;;;;;;;4.10;2.00;;;;;;;14.24;73.83;100512.81;4983704;28;20393;-48
2023/09/13 00:13:33;;;;;;;5.53;1.50;;;;;;;14.24;73.72;100513.69;4982270;28;20042;-50
2023/09/13 00:16:00;;;;;;;2.33;1.20;;;;;;;14.25;73.71;100519.75;4987726;28;20050;-53
2023/09/13 00:18:27;;;;;;;3.70;1.15;;;;;;;14.24;73.44;100523.25;4984475;28;20096;-47
2023/09/13 00:20:54;;;;;;;4.47;1.30;;;;;;;14.23;73.83;100521.53;4987179;28;20565;-45
2023/09/13 00:23:21;;;;;;;5.13;1.48;;;;;;;14.22;73.04;100525.84;4983743;28;20578;-48
2023/09/13 00:25:47;;;;;;;3.95;1.23;;;;;;;14.17;74.15;100516.34;4987734;28;20156;-48
2023/09/13 00:28:14;;;;;;;5.22;1.35;;;;;;;14.12;73.59;100519.88;4983614;28;20050;-48
2023/09/13 00:30:41;;;;;;;2.67;1.13;;;;;;;14.11;73.55;100523.38;4989790;28;20081;-48
2023/09/13 00:33:08;;;;;;;5.18;1.15;;;;;;;14.08;73.95;100533.81;4989782;28;20145;-47
2023/09/13 00:35:35;;;;;;;4.35;1.65;;;;;;;14.06;73.37;100530.38;4986123;28;20495;-45
2023/09/13 00:38:02;;;;;;;3.70;1.25;;;;;;;14.03;73.44;100534.72;4985948;28;20055;-47
2023/09/13 00:40:29;;;;;;;6.18;1.38;;;;;;;13.99;73.41;100534.75;4983747;28;20042;-48
2023/09/13 00:42:55;;;;;;;5.30;2.00;;;;;;;13.94;73.14;100538.28;4984607;28;20045;-49
2023/09/13 00:45:22;;;;;;;3.97;2.00;;;;;;;13.91;74.03;100533.13;4984781;28;20464;-50
2023/09/13 00:47:49;;;;;;;2.55;1.05;;;;;;;13.86;73.44;100536.63;4983726;28;20074;-51
2023/09/13 00:50:17;;;;;;;2.60;1.42;;;;;;;13.84;73.21;100545.31;4982379;28;20050;-49
2023/09/13 00:52:46;;;;;;;5.35;1.25;;;;;;;13.79;73.07;100542.75;4984588;28;20051;-50
2023/09/13 00:55:16;;;;;;;4.60;1.15;;;;;;;13.76;73.21;100537.56;4997565;28;20058;-48
2023/09/13 00:57:44;;;;;;;3.10;1.52;;;;;;;13.72;73.06;100535.88;4981015;28;20047;-53
2023/09/13 01:00:12;;;;;;;5.15;1.33;;;;;;;13.70;73.66;100537.59;4982180;28;20054;-51
2023/09/13 01:02:40;;;;;;;2.88;1.23;;;;;;;13.69;73.10;100541.97;4979783;28;20056;-45
2023/09/13 01:05:11;;;;;;;3.38;1.40;;;;;;;13.67;72.96;100542.84;4977560;28;20042;-50
2023/09/13 01:07:40;;;;;;;4.30;1.13;;;;;;;13.62;72.65;100541.13;4978401;28;20065;-53
2023/09/13 01:10:08;;;;;;;5.28;1.08;;;;;;;13.58;73.06;100544.63;4978861;28;20057;-50
2023/09/13 01:12:35;;;;;;;4.13;0.98;;;;;;;13.57;72.91;100542.91;4978194;28;20119;-46
2023/09/13 01:15:07;;;;;;;1.20;0.70;;;;;;;13.55;72.23;100543.81;4979352;28;20054;-50
2023/09/13 01:17:51;;;;;;;2.22;0.60;;;;;;;13.46;72.54;100539.47;4979333;28;20050;-51
2023/09/13 01:20:57;;;;;;;3.05;1.00;;;;;;;13.41;73.17;100549.91;4976108;28;20129;-52
2023/09/13 01:26:32;;;;;;;4.13;1.67;;;;;;;13.30;72.98;100559.53;5047556;27;20413;-52
2023/09/13 01:29:00;;;;;;;3.50;0.95;;;;;;;13.33;73.02;100564.72;5024889;28;20761;-49
2023/09/13 01:31:28;;;;;;;2.28;1.63;;;;;;;13.28;72.65;100558.69;5005000;28;20050;-48
2023/09/13 01:33:54;;;;;;;5.70;2.25;;;;;;;13.23;72.52;100556.09;5008551;28;20053;-49
2023/09/13 01:36:21;;;;;;;3.97;1.90;;;;;;;13.17;73.49;100550.94;5003500;28;20049;-44
2023/09/13 01:38:48;;;;;;;3.67;2.47;;;;;;;13.09;72.76;100549.25;5012408;28;20532;-50
2023/09/13 01:41:25;;;;;;;4.78;2.22;;;;;;;13.01;72.97;100548.44;5008364;28;20054;-50
2023/09/13 01:43:54;;;;;;;5.68;2.20;;;;;;;12.98;73.29;100548.44;5030602;28;20049;-48
2023/09/13 01:46:27;;;;;;;3.22;1.80;;;;;;;12.91;73.23;100552.81;4988652;28;20054;-45
2023/09/13 01:48:56;;;;;;;2.53;2.08;;;;;;;12.87;73.18;100551.06;4991089;28;20054;-49
2023/09/13 01:51:25;;;;;;;4.80;2.35;;;;;;;12.83;73.78;100549.34;5025491;28;20724;-46
2023/09/13 01:53:54;;;;;;;3.72;2.00;;;;;;;12.79;73.22;100553.72;5013060;28;20052;-49
2023/09/13 01:56:22;;;;;;;6.00;2.38;;;;;;;12.76;73.72;100555.47;5026242;28;20049;-50
2023/09/13 01:58:49;;;;;;;3.17;1.85;;;;;;;12.73;74.08;100559.78;5026120;28;20045;-48
2023/09/13 02:01:16;;;;;;;3.63;1.70;;;;;;;12.71;74.22;100558.06;5018116;28;20678;-49
2023/09/13 02:03:44;;;;;;;3.08;2.05;;;;;;;12.66;74.54;100558.09;5019966;28;20057;-50
2023/09/13 02:06:13;;;;;;;3.45;1.50;;;;;;;12.63;73.33;100565.03;5023852;28;20136;-50
2023/09/13 02:08:41;;;;;;;2.75;2.10;;;;;;;12.62;73.09;100565.88;5024007;28;20057;-46
2023/09/13 02:11:09;;;;;;;5.10;1.83;;;;;;;12.57;73.94;100569.34;5025097;28;20046;-47
2023/09/13 02:13:35;;;;;;;5.97;2.17;;;;;;;12.54;73.66;100568.50;5021565;28;20077;-46
2023/09/13 02:16:03;;;;;;;8.65;1.92;;;;;;;12.48;74.78;100577.19;5021681;28;20045;-47
2023/09/13 02:18:30;;;;;;;4.50;1.88;;;;;;;12.47;74.35;100578.06;5019529;28;20490;-52
2023/09/13 02:20:57;;;;;;;2.40;2.10;;;;;;;12.45;74.52;100580.66;5015332;28;20059;-48
2023/09/13 02:23:23;;;;;;;7.68;2.60;;;;;;;12.42;74.32;100583.25;5020916;28;20080;-49
2023/09/13 02:25:50;;;;;;;6.13;2.10;;;;;;;12.40;74.39;100578.94;5022910;28;20049;-52
2023/09/13 02:28:17;;;;;;;3.65;2.10;;;;;;;12.33;73.58;100581.53;5016357;28;20553;-46
2023/09/13 02:30:46;;;;;;;7.32;2.58;;;;;;;12.34;74.57;100583.25;5024847;28;20053;-47
2023/09/13 02:33:13;;;;;;;4.70;2.42;;;;;;;12.32;74.10;100582.41;5005077;28;20050;-48
2023/09/13 02:35:40;;;;;;;4.00;2.28;;;;;;;12.32;74.87;100584.13;5017307;28;20054;-48
2023/09/13 02:38:06;;;;;;;5.18;2.55;;;;;;;12.29;74.66;100585.00;5008040;28;20459;-47
2023/09/13 02:40:33;;;;;;;3.13;1.92;;;;;;;12.25;74.19;100585.88;5007345;28;20060;-49
2023/09/13 02:43:00;;;;;;;4.85;2.55;;;;;;;12.23;74.71;100587.63;5011347;28;20054;-47
2023/09/13 02:45:27;;;;;;;9.85;2.40;;;;;;;12.20;74.29;100601.47;5010019;28;20578;-49
2023/09/13 02:47:54;;;;;;;3.90;1.92;;;;;;;12.19;73.96;100593.66;5009886;28;20045;-44
2023/09/13 02:50:21;;;;;;;4.78;2.22;;;;;;;12.21;74.82;100597.13;5006256;28;20136;-48
2023/09/13 02:52:47;;;;;;;7.40;2.67;;;;;;;12.18;74.85;100602.31;5003324;28;20515;-50
2023/09/13 02:55:14;;;;;;;5.43;1.75;;;;;;;12.14;74.90;100598.00;5004691;28;20476;-44
2023/09/13 02:57:41;;;;;;;3.35;2.13;;;;;;;12.12;74.86;100591.97;5004414;28;20056;-46
2023/09/13 03:00:09;;;;;;;2.17;1.38;;;;;;;12.10;73.67;100593.69;4998645;28;20060;-50
2023/09/13 03:02:35;;;;;;;3.50;1.63;;;;;;;12.05;74.86;100586.72;5002926;28;20041;-48
2023/09/13 03:05:05;;;;;;;5.40;1.90;;;;;;;12.03;74.47;100588.44;5001484;28;20069;-48
2023/09/13 03:07:32;;;;;;;3.92;2.20;;;;;;;12.02;74.46;100591.91;5002126;28;20238;-45
2023/09/13 03:09:58;;;;;;;7.20;2.50;;;;;;;11.99;74.71;100597.09;5005690;28;20438;-47
2023/09/13 03:12:25;;;;;;;6.15;2.08;;;;;;;11.98;74.93;100595.38;5004220;28;20065;-49
2023/09/13 03:14:54;;;;;;;2.90;2.30;;;;;;;11.95;73.98;100600.56;5002542;28;20042;-46
2023/09/13 03:17:21;;;;;;;4.90;2.78;;;;;;;11.89;74.79;100605.78;5002684;28;20593;-52
2023/09/13 03:19:47;;;;;;;5.85;2.13;;;;;;;11.89;74.24;100605.78;5006626;28;20042;-53
2023/09/13 03:22:14;;;;;;;5.63;1.92;;;;;;;11.85;74.21;100604.03;5003015;28;20053;-51
2023/09/13 03:24:41;;;;;;;4.53;2.33;;;;;;;11.84;75.03;100608.34;4979272;28;20101;-47
2023/09/13 03:27:08;;;;;;;3.00;1.92;;;;;;;11.82;75.04;100610.06;4977762;28;20055;-50
2023/09/13 03:29:35;;;;;;;5.18;1.92;;;;;;;11.78;74.50;100603.13;5005413;28;20050;-48
2023/09/13 03:32:03;;;;;;;3.80;1.90;;;;;;;11.77;74.32;100602.28;4979492;28;20053;-47
2023/09/13 03:34:30;;;;;;;5.13;2.03;;;;;;;11.77;74.82;100602.28;4976938;28;20050;-45
2023/09/13 03:36:56;;;;;;;3.08;1.27;;;;;;;11.75;74.99;100604.00;4981145;28;20408;-47
2023/09/13 03:39:28;;;;;;;3.88;2.30;;;;;;;11.71;74.93;100602.28;4974303;28;20047;-47
2023/09/13 03:41:56;;;;;;;9.60;1.75;;;;;;;11.69;75.36;100611.81;4981838;28;20069;-47
2023/09/13 03:44:25;;;;;;;4.65;2.42;;;;;;;11.66;75.64;100601.41;5004506;28;20051;-47
2023/09/13 03:46:52;;;;;;;2.25;1.70;;;;;;;11.65;75.55;100608.31;4981520;28;20068;-48
2023/09/13 03:49:19;;;;;;;7.00;1.63;;;;;;;11.67;75.48;100610.91;4985588;28;20097;-45
2023/09/13 03:51:46;;;;;;;4.05;2.20;;;;;;;11.63;75.08;100604.00;5002900;28;20699;-47
2023/09/13 03:54:13;;;;;;;4.97;1.40;;;;;;;11.64;74.69;100605.72;4985566;28;20142;-43
2023/09/13 03:56:39;;;;;;;4.32;2.33;;;;;;;11.59;75.51;100607.44;4982473;28;20050;-43
2023/09/13 03:59:06;;;;;;;5.00;2.25;;;;;;;11.60;74.89;100601.38;4979900;28;20077;-48
2023/09/13 04:01:33;;;;;;;3.05;1.80;;;;;;;11.59;74.54;100599.66;4976460;28;20051;-45
2023/09/13 04:04:00;;;;;;;4.45;2.78;;;;;;;11.53;74.51;100604.00;4975720;28;20058;-48
2023/09/13 04:06:27;;;;;;;6.93;2.65;;;;;;;11.51;75.61;100597.91;4979199;28;20050;-46
2023/09/13 04:08:54;;;;;;;2.67;1.50;;;;;;;11.51;75.39;100603.09;4996087;28;20112;-44
2023/09/13 04:11:20;;;;;;;5.18;1.70;;;;;;;11.49;75.80;100607.44;4989874;28;20053;-46
2023/09/13 04:13:47;;;;;;;7.95;1.80;;;;;;;11.47;75.74;100603.97;4981047;28;20526;-49
2023/09/13 04:16:16;;;;;;;6.55;2.38;;;;;;;11.47;74.79;100609.16;4984003;28;20136;-51
2023/09/13 04:18:43;;;;;;;6.10;2.58;;;;;;;11.43;74.88;100607.41;4973159;28;20054;-51
2023/09/13 04:21:10;;;;;;;9.77;2.28;;;;;;;11.43;74.73;100612.59;4993644;28;20064;-49
2023/09/13 04:23:37;;;;;;;3.60;1.77;;;;;;;11.41;75.60;100603.94;4998686;28;20050;-47
2023/09/13 04:26:04;;;;;;;5.20;2.60;;;;;;;11.41;74.90;100609.13;5005106;28;20054;-47
2023/09/13 04:28:32;;;;;;;2.45;1.55;;;;;;;11.41;75.86;100603.94;4996223;28;20065;-50
2023/09/13 04:30:59;;;;;;;2.38;1.63;;;;;;;11.38;76.15;100604.78;5005979;28;20516;-44
2023/09/13 04:33:46;;;;;;;2.78;2.08;;;;;;;11.33;75.67;100603.94;5001998;28;20057;-45
2023/09/13 04:36:12;;;;;;;2.92;1.70;;;;;;;11.34;75.43;100607.41;5003754;28;20514;-47
2023/09/13 04:38:39;;;;;;;4.03;2.00;;;;;;;11.34;74.89;100602.22;5010592;28;20053;-48
2023/09/13 04:41:11;;;;;;;7.55;1.55;;;;;;;11.33;74.85;100606.53;5005562;28;20480;-49
2023/09/13 04:43:37;;;;;;;3.38;1.83;;;;;;;11.32;75.48;100615.16;5005867;28;20053;-48
2023/09/13 04:46:04;;;;;;;3.85;2.20;;;;;;;11.30;75.49;100612.56;5006929;28;20050;-46
2023/09/13 04:48:31;;;;;;;5.03;1.83;;;;;;;11.27;74.91;100622.94;5008543;28;20129;-53
2023/09/13 04:50:57;;;;;;;3.13;1.27;;;;;;;11.25;76.05;100618.59;5002048;28;20696;-48
2023/09/13 04:53:25;;;;;;;4.90;2.13;;;;;;;11.24;74.80;100622.91;5003720;28;20759;-47
2023/09/13 04:55:51;;;;;;;6.97;2.08;;;;;;;11.23;75.70;100623.78;5007228;28;20049;-50
2023/09/13 04:58:18;;;;;;;9.05;2.55;;;;;;;11.19;76.19;100630.66;5002300;28;20050;-45
2023/09/13 05:00:45;;;;;;;7.70;1.80;;;;;;;11.19;75.30;100627.22;5002846;28;20049;-51
2023/09/13 05:03:12;;;;;;;3.70;2.15;;;;;;;11.18;75.11;100634.13;5006564;28;20049;-47
2023/09/13 05:05:39;;;;;;;2.83;1.83;;;;;;;11.18;76.15;100638.47;4999727;28;20049;-52
2023/09/13 05:08:06;;;;;;;4.82;0.50;;;;;;;11.17;75.30;100639.28;5004053;28;20910;-46
2023/09/13 05:10:33;;;;;;;8.48;2.35;;;;;;;11.18;75.13;100641.06;4999020;28;20497;-45
2023/09/13 05:13:00;;;;;;;4.53;2.63;;;;;;;11.17;75.14;100647.06;5006025;28;20053;-47
2023/09/13 05:15:27;;;;;;;2.80;2.05;;;;;;;11.16;75.60;100650.53;5003434;28;20113;-47
2023/09/13 05:17:53;;;;;;;3.78;1.90;;;;;;;11.14;75.99;100653.13;5001924;28;20060;-45
2023/09/13 05:20:20;;;;;;;3.10;1.85;;;;;;;11.13;75.94;100660.88;5010201;28;20049;-47
2023/09/13 05:22:47;;;;;;;2.20;1.65;;;;;;;11.12;75.42;100666.94;5005624;28;20531;-46
2023/09/13 05:25:13;;;;;;;4.25;1.85;;;;;;;11.10;75.96;100666.06;5005446;28;20046;-45
2023/09/13 05:27:40;;;;;;;4.72;3.15;;;;;;;11.09;75.25;100675.56;4998918;28;20053;-45
2023/09/13 05:30:07;;;;;;;4.60;2.60;;;;;;;11.09;75.07;100682.47;5007605;28;20058;-47
2023/09/13 05:32:34;;;;;;;4.13;2.20;;;;;;;11.08;75.18;100680.75;5006066;28;20045;-46
2023/09/13 05:35:01;;;;;;;4.00;2.22;;;;;;;11.05;76.44;100687.63;5009665;28;20049;-49
2023/09/13 05:37:27;;;;;;;6.15;2.00;;;;;;;11.05;75.27;100690.22;5010770;28;20060;-48
2023/09/13 05:39:54;;;;;;;6.20;2.97;;;;;;;11.04;75.72;100690.22;5009042;28;20054;-48
2023/09/13 05:42:21;;;;;;;6.60;2.13;;;;;;;11.05;76.07;100694.56;5011206;28;20041;-48
2023/09/13 05:44:48;;;;;;;5.78;2.45;;;;;;;11.03;75.58;100697.16;5005838;28;20068;-55
2023/09/13 05:47:14;;;;;;;5.90;1.90;;;;;;;11.03;76.43;100701.44;5007830;28;20041;-48
2023/09/13 05:49:41;;;;;;;4.47;2.70;;;;;;;11.03;76.29;100710.09;5010974;28;20054;-45
2023/09/13 05:52:08;;;;;;;4.90;1.67;;;;;;;11.04;75.57;100704.06;5007698;28;20048;-46
2023/09/13 05:54:34;;;;;;;2.88;2.00;;;;;;;11.01;76.34;100704.03;5010664;28;20050;-49
2023/09/13 05:57:01;;;;;;;5.75;2.15;;;;;;;11.03;75.48;100714.41;5006084;28;20042;-45
2023/09/13 05:59:29;;;;;;;3.05;2.00;;;;;;;11.03;76.27;100711.81;5001600;28;20100;-51
2023/09/13 06:01:56;;;;;;;6.82;2.20;;;;;;;11.04;76.50;100723.91;5002800;28;20466;-44
2023/09/13 06:04:23;;;;;;;6.78;2.40;;;;;;;11.03;76.52;100720.47;4999239;28;20044;-42
2023/09/13 06:06:49;;;;;;;4.53;1.30;;;;;;;11.04;76.45;100717.00;4998327;28;20531;-49
2023/09/13 06:09:21;;;;;;;4.82;1.88;;;;;;;11.05;76.04;100718.75;5007277;28;20133;-50
2023/09/13 06:11:48;;;;;;;6.05;1.40;;;;;;;11.09;75.51;100727.41;5009195;28;20529;-50
2023/09/13 06:14:16;;;;;;;6.05;2.13;;;;;;;11.10;75.16;100723.09;5010189;28;20045;-47
2023/09/13 06:16:43;;;;;;;4.38;2.13;;;;;;;11.12;75.29;100726.56;5012778;28;20053;-46
2023/09/13 06:19:10;;;;;;;4.90;1.90;;;;;;;11.17;75.38;100740.41;5005692;28;20057;-47
2023/09/13 06:21:36;;;;;;;6.30;2.15;;;;;;;11.21;75.83;100731.78;5013453;28;20049;-48
2023/09/13 06:24:04;;;;;;;6.57;2.33;;;;;;;11.28;75.16;100737.91;5013527;28;20053;-46
2023/09/13 06:26:31;;;;;;;4.53;2.28;;;;;;;11.34;75.90;100742.25;5006626;28;20054;-47
2023/09/13 06:28:57;;;;;;;4.68;3.08;;;;;;;11.38;76.13;100749.19;5003127;28;20081;-47
2023/09/13 06:31:24;;;;;;;4.25;2.25;;;;;;;11.42;75.41;100745.75;5011126;28;20658;-46
2023/09/13 06:34:01;;;;;;;4.18;2.45;;;;;;;11.47;75.43;100748.34;5012415;28;20058;-47
2023/09/13 06:36:30;;;;;;;6.43;2.03;;;;;;;11.48;75.54;100756.13;5006510;28;20050;-46
2023/09/13 06:38:57;;;;;;;6.32;2.60;;;;;;;11.53;75.72;100761.34;5002237;28;20053;-48
2023/09/13 06:41:24;;;;;;;3.13;2.63;;;;;;;11.56;75.48;100757.03;5007991;28;20052;-46
2023/09/13 06:43:51;;;;;;;6.88;2.05;;;;;;;11.61;74.77;100761.38;4999519;28;20047;-47
2023/09/13 06:46:24;;;;;;;3.72;2.00;;;;;;;11.67;74.34;100766.59;4997317;28;20557;-48
2023/09/13 06:48:52;;;;;;;4.57;2.42;;;;;;;11.73;74.53;100777.03;4994190;28;20046;-47
2023/09/13 06:51:19;;;;;;;6.00;2.97;;;;;;;11.80;75.23;100773.59;4996698;28;20100;-46
2023/09/13 06:53:50;;;;;;;4.63;2.33;;;;;;;11.88;74.31;100778.81;4995685;28;20058;-47
2023/09/13 06:56:20;;;;;;;5.65;1.85;;;;;;;11.94;73.98;100776.25;4997317;28;20058;-47
2023/09/13 06:58:53;;;;;;;3.10;1.92;;;;;;;12.04;75.13;100781.44;4999500;28;20045;-46
2023/09/13 07:01:22;;;;;;;4.47;2.13;;;;;;;12.12;74.79;100787.56;4991396;28;20078;-46
2023/09/13 07:04:09;;;;;;;4.35;1.95;;;;;;;12.20;74.45;100792.78;4996896;28;20670;-48
2023/09/13 07:06:43;;;;;;;5.88;2.20;;;;;;;12.56;74.09;100788.50;4997082;28;20069;-47
2023/09/13 07:09:10;;;;;;;6.18;2.33;;;;;;;13.49;74.39;100797.13;4995586;28;20064;-47
2023/09/13 07:11:38;;;;;;;5.80;2.58;;;;;;;14.48;72.38;100802.72;5005504;28;20046;-52
2023/09/13 07:14:05;;;;;;;4.75;2.28;;;;;;;15.45;71.05;100801.91;4997838;28;20105;-47
2023/09/13 07:16:32;;;;;;;6.38;2.45;;;;;;;16.31;69.64;100810.44;4995102;28;20042;-48
2023/09/13 07:19:02;;;;;;;2.55;1.95;;;;;;;17.09;68.27;100810.97;4995767;28;20054;-50
2023/09/13 07:21:30;;;;;;;5.45;2.05;;;;;;;17.71;66.29;100799.34;4997921;28;20132;-51
2023/09/13 07:23:56;;;;;;;8.32;2.17;;;;;;;18.21;64.57;100811.41;4995351;28;20064;-48
2023/09/13 07:26:23;;;;;;;4.88;2.15;;;;;;;18.55;63.42;100814.16;4996016;28;20487;-45
2023/09/13 07:28:50;;;;;;;7.85;2.65;;;;;;;18.85;62.87;100811.69;4997414;28;20053;-48
2023/09/13 07:31:16;;;;;;;4.50;1.67;;;;;;;19.25;61.89;100815.09;4996392;28;20080;-49
2023/09/13 07:33:43;;;;;;;4.72;1.70;;;;;;;19.64;61.09;100806.13;4994734;28;20058;-53
2023/09/13 07:36:13;;;;;;;5.78;2.15;;;;;;;20.12;60.46;100819.66;4990610;28;20049;-49
2023/09/13 07:38:39;;;;;;;2.63;1.75;;;;;;;20.54;59.60;100835.00;5010964;28;20053;-49
2023/09/13 07:41:06;;;;;;;3.15;2.03;;;;;;;20.97;58.74;100825.78;5005338;28;20155;-52
2023/09/13 07:43:33;;;;;;;3.42;2.00;;;;;;;21.36;57.56;100824.44;5006379;28;20100;-48
2023/09/13 07:46:01;;;;;;;3.90;2.80;;;;;;;21.78;56.78;100822.97;5005306;28;20049;-51
2023/09/13 07:48:28;;;;;;;4.15;0.85;;;;;;;22.28;56.65;100824.56;5005192;28;20687;-47
2023/09/13 07:50:54;;;;;;;8.60;2.40;;;;;;;22.70;55.64;100812.34;4999296;28;20050;-56
2023/09/13 07:53:21;;;;;;;2.58;1.73;;;;;;;23.18;54.33;100812.13;5003398;28;20046;-49
2023/09/13 07:55:48;;;;;;;4.60;1.83;;;;;;;23.72;53.66;100816.81;5002660;28;20124;-47
2023/09/13 07:58:14;;;;;;;3.95;2.30;;;;;;;24.18;52.68;100812.09;5002728;28;20049;-47
2023/09/13 08:00:43;;;;;;;4.18;2.45;;;;;;;24.50;52.02;100822.91;5000859;28;20058;-51
2023/09/13 08:03:10;;;;;;;4.85;1.92;;;;;;;24.89;51.20;100813.91;4998482;28;20050;-53
2023/09/13 08:05:37;;;;;;;4.88;2.35;;;;;;;25.24;50.46;100801.56;5005293;28;20049;-54
2023/09/13 08:08:04;;;;;;;6.18;2.65;;;;;;;25.41;50.26;100820.09;5003207;28;20525;-53
2023/09/13 08:10:31;;;;;;;3.25;1.15;;;;;;;25.54;48.98;100822.94;5004293;28;20415;-49
2023/09/13 08:12:58;;;;;;;7.07;2.50;;;;;;;25.72;49.31;100822.91;4998347;28;20123;-54
2023/09/13 08:15:25;;;;;;;6.43;3.45;;;;;;;26.05;48.91;100829.09;4996796;28;20724;-50
2023/09/13 08:18:12;;;;;;;5.55;2.22;;;;;;;26.37;48.64;100839.72;5004517;28;20052;-54
2023/09/13 08:20:38;;;;;;;6.72;2.38;;;;;;;26.69;47.62;100839.66;5002089;28;20074;-51
2023/09/13 08:23:05;;;;;;;4.45;3.30;;;;;;;26.98;47.57;100835.41;5005780;28;20424;-51
2023/09/13 08:25:32;;;;;;;5.63;2.80;;;;;;;27.19;46.78;100836.75;4998929;28;20045;-57
2023/09/13 08:27:58;;;;;;;6.65;3.42;;;;;;;27.39;45.80;100847.97;5004867;28;20061;-47
2023/09/13 08:30:25;;;;;;;7.78;3.35;;;;;;;27.61;46.35;100851.97;5000189;28;20539;-52
2023/09/13 08:32:52;;;;;;;5.82;2.90;;;;;;;27.92;45.45;100847.41;5001273;28;20062;-49
2023/09/13 08:35:19;;;;;;;6.32;3.13;;;;;;;28.10;44.91;100841.88;5005335;28;20046;-51
2023/09/13 08:37:45;;;;;;;9.75;3.47;;;;;;;28.22;44.28;100841.06;4999462;28;20049;-51
2023/09/13 08:40:12;;;;;;;7.97;3.80;;;;;;;28.27;44.06;100847.91;5004180;28;20037;-49
2023/09/13 08:42:40;;;;;;;9.18;3.05;;;;;;;28.22;43.97;100846.41;5001109;28;20045;-51
2023/09/13 08:45:07;;;;;;;6.20;3.90;;;;;;;28.38;43.24;100845.44;4995381;28;20058;-48
2023/09/13 08:47:38;;;;;;;7.68;3.20;;;;;;;28.41;43.29;100853.22;5000039;28;20535;-48
2023/09/13 08:50:27;;;;;;;6.45;2.15;;;;;;;28.56;43.46;100858.47;5002987;28;20369;-56
2023/09/13 08:52:58;;;;;;;4.78;2.78;;;;;;;28.72;42.96;100851.19;4996911;28;20527;-46
2023/09/13 08:55:26;;;;;;;8.07;3.35;;;;;;;28.93;42.52;100861.38;5001027;28;20042;-49
2023/09/13 08:57:55;;;;;;;7.18;3.25;;;;;;;28.99;41.51;100849.44;5001208;28;20045;-52
2023/09/13 09:00:25;;;;;;;6.82;2.42;;;;;;;29.18;42.29;100854.34;5005105;28;20060;-53
2023/09/13 09:02:54;;;;;;;5.43;2.90;;;;;;;29.35;41.23;100860.34;4992407;28;20077;-47
2023/09/13 09:05:25;;;;;;;4.07;1.98;;;;;;;29.34;40.74;100859.47;4998457;28;20073;-54
2023/09/13 09:07:54;;;;;;;4.93;2.85;;;;;;;29.42;40.88;100858.97;5013910;28;20050;-56
2023/09/13 09:10:22;;;;;;;4.88;2.03;;;;;;;29.48;40.47;100860.34;4999433;28;20069;-50
2023/09/13 09:12:52;;;;;;;3.60;1.92;;;;;;;29.58;40.21;100855.25;4997929;28;20050;-49
2023/09/13 09:15:20;;;;;;;5.20;2.22;;;;;;;29.72;40.97;100863.09;4998517;28;20492;-50
2023/09/13 09:17:49;;;;;;;4.38;2.28;;;;;;;29.75;39.91;100864.72;4997584;28;20525;-55
2023/09/13 09:20:17;;;;;;;2.85;1.05;;;;;;;29.46;38.93;100863.13;5000442;28;20654;-50
2023/09/13 09:22:44;;;;;;;5.18;2.33;;;;;;;29.06;39.42;100876.53;5002938;28;20042;-53
2023/09/13 09:25:12;;;;;;;5.40;2.03;;;;;;;28.22;40.20;100878.34;5004646;28;20058;-53
2023/09/13 09:27:40;;;;;;;4.72;2.65;;;;;;;27.27;40.52;100870.00;5000764;28;20137;-50
2023/09/13 09:30:14;;;;;;;4.40;2.20;;;;;;;26.70;42.27;100877.72;5001180;28;20053;-51
2023/09/13 09:32:43;;;;;;;5.75;2.33;;;;;;;26.61;42.12;100873.78;5014573;28;20136;-51
2023/09/13 09:35:10;;;;;;;4.22;1.90;;;;;;;26.51;43.14;100872.63;4997862;28;20050;-57
2023/09/13 09:37:38;;;;;;;5.97;2.35;;;;;;;26.18;42.58;100872.59;5002780;28;20080;-49
2023/09/13 09:40:11;;;;;;;5.28;2.28;;;;;;;26.07;43.21;100872.31;4997413;28;20168;-46
2023/09/13 09:42:38;;;;;;;3.78;2.40;;;;;;;25.95;43.49;100873.00;5006273;28;20046;-47
2023/09/13 09:45:05;;;;;;;4.47;1.60;;;;;;;26.13;43.44;100860.50;4996071;28;20054;-51
2023/09/13 09:47:37;;;;;;;7.07;2.53;;;;;;;26.10;43.45;100863.34;5004592;28;20061;-49
2023/09/13 09:50:04;;;;;;;4.80;2.17;;;;;;;26.30;42.32;100870.22;5002361;28;20046;-54
2023/09/13 09:52:32;;;;;;;4.00;2.45;;;;;;;26.55;42.95;100876.81;5006039;28;20056;-52
2023/09/13 09:54:59;;;;;;;2.90;2.00;;;;;;;26.78;42.08;100864.81;5007396;28;20070;-49
2023/09/13 09:57:26;;;;;;;5.65;2.15;;;;;;;26.76;42.21;100868.53;5001394;28;20491;-54
2023/09/13 09:59:53;;;;;;;6.00;2.22;;;;;;;26.59;41.04;100870.38;5002712;28;20100;-49
2023/09/13 10:02:26;;;;;;;3.78;1.75;;;;;;;26.10;41.39;100869.50;5007131;28;20042;-48
2023/09/13 10:04:53;;;;;;;5.50;2.47;;;;;;;25.83;42.34;100874.53;5001478;28;20041;-49
2023/09/13 10:07:20;;;;;;;4.38;1.40;;;;;;;25.69;43.19;100872.63;5006975;28;20452;-49
2023/09/13 10:09:47;;;;;;;4.97;2.22;;;;;;;25.71;42.32;100873.41;5004816;28;20041;-52
2023/09/13 10:12:14;;;;;;;4.03;2.65;;;;;;;25.39;42.32;100874.13;5004957;28;20495;-50
2023/09/13 10:14:44;;;;;;;7.05;2.38;;;;;;;25.30;43.06;100867.53;5017176;28;20073;-49
2023/09/13 10:17:11;;;;;;;8.38;3.42;;;;;;;25.58;43.89;100863.44;4995538;28;20054;-54
2023/09/13 10:19:40;;;;;;;3.47;2.17;;;;;;;25.95;43.46;100870.34;5005805;28;20495;-55
2023/09/13 10:22:08;;;;;;;3.45;2.47;;;;;;;26.23;43.59;100877.63;5000328;28;20060;-50
2023/09/13 10:24:39;;;;;;;3.65;2.72;;;;;;;26.41;42.54;100878.44;5006354;28;20065;-52
2023/09/13 10:27:08;;;;;;;4.95;2.65;;;;;;;26.43;42.25;100871.25;5000205;28;20096;-53
2023/09/13 10:32:15;;;;;;;4.05;1.00;;;;;;;25.83;40.96;100878.03;5099707;27;20412;-51
2023/09/13 10:35:00;;;;;;;4.47;2.13;;;;;;;25.35;41.51;100873.44;5077228;28;20409;-52
2023/09/13 10:40:43;;;;;;;6.28;1.60;;;;;;;25.61;42.02;100879.22;5078519;28;20405;-54
2023/09/13 10:43:10;;;;;;;6.75;1.95;;;;;;;25.76;42.53;100877.50;5027490;28;20046;-50
2023/09/13 10:45:40;;;;;;;2.78;0.98;;;;;;;25.82;41.99;100876.31;5022342;28;20044;-56
2023/09/13 10:48:08;;;;;;;5.05;1.60;;;;;;;25.86;41.60;100885.84;5038535;28;20048;-57
2023/09/13 10:50:37;;;;;;;4.38;1.33;;;;;;;25.75;40.89;100885.56;5024831;28;20053;-52
2023/09/13 10:53:04;;;;;;;3.47;1.50;;;;;;;25.42;41.14;100879.28;5041588;28;20060;-54
2023/09/13 10:55:32;;;;;;;3.92;1.55;;;;;;;25.08;41.61;100881.00;5043440;28;20128;-53
2023/09/13 10:58:03;;;;;;;4.20;0.93;;;;;;;24.94;41.99;100882.56;5042723;28;20128;-55
2023/09/13 11:00:32;;;;;;;4.50;1.35;;;;;;;25.04;42.60;100880.31;5038172;28;20128;-55
2023/09/13 11:03:00;;;;;;;5.15;1.65;;;;;;;25.07;42.53;100880.16;5043240;28;20720;-49
2023/09/13 11:05:28;;;;;;;3.28;1.50;;;;;;;25.20;42.50;100885.72;5041587;28;20041;-52
2023/09/13 11:07:55;;;;;;;5.65;1.73;;;;;;;25.28;41.82;100882.66;5043404;28;20088;-50
2023/09/13 11:10:22;;;;;;;5.10;1.13;;;;;;;25.13;41.63;100874.53;5033903;28;20037;-54
2023/09/13 11:12:50;;;;;;;6.82;1.20;;;;;;;25.13;42.40;100874.53;5035380;28;20574;-54
2023/09/13 11:15:21;;;;;;;4.90;1.63;;;;;;;25.19;42.31;100883.13;5042813;28;20132;-50
2023/09/13 11:17:48;;;;;;;2.28;0.98;;;;;;;25.22;42.48;100880.28;5036383;28;20053;-51
2023/09/13 11:25:39;;;;;;;4.70;1.20;;;;;;;25.51;41.88;100888.53;5038581;27;20382;-49
2023/09/13 11:28:28;;;;;;;4.20;1.20;;;;;;;25.46;41.57;100886.13;5020319;28;20104;-51
2023/09/13 11:30:59;;;;;;;4.38;1.33;;;;;;;25.52;41.82;100879.66;5016070;28;20160;-50
2023/09/13 11:33:28;;;;;;;5.13;1.13;;;;;;;25.53;41.05;100887.53;5023270;28;20041;-55
2023/09/13 11:35:57;;;;;;;5.40;1.60;;;;;;;25.35;40.73;100894.66;5022079;28;20048;-49
2023/09/13 11:38:25;;;;;;;4.38;1.40;;;;;;;25.01;40.93;100891.94;5021375;28;20042;-50
2023/09/13 11:40:56;;;;;;;4.65;1.60;;;;;;;24.74;41.25;100899.41;5017068;28;20050;-52
2023/09/13 11:43:25;;;;;;;4.90;1.33;;;;;;;24.57;41.66;100895.81;5018028;28;20757;-53